Time;durP1;ratioP1;P1;durP2;ratioP2;P2;SDS_P1;SDS_P2;PMS_P1;PMS_P2;Temp;Humidity;BMP_temperature;BMP_pressure;BME280_temperature;BME280_humidity;BME280_pressure;Samples;Min_cycle;Max_cycle;Signal;HPM_P1;HPM_P2
2022/06/27 00:01:12;;;;;;;17.67;4.07;;;;;;;;;;5023889;28;20130;-53
2022/06/27 00:03:38;;;;;;;11.57;3.35;;;;;;;;;;5021366;28;20038;-50
2022/06/27 00:06:03;;;;;;;15.68;3.50;;;;;;;;;;5028538;28;20048;-49
2022/06/27 00:08:29;;;;;;;14.68;3.83;;;;;;;;;;5025456;28;20026;-52
2022/06/27 00:10:55;;;;;;;18.10;4.25;;;;;;;;;;5023959;28;20125;-53
2022/06/27 00:13:21;;;;;;;13.52;3.92;;;;;;;;;;5024893;28;20075;-51
2022/06/27 00:15:46;;;;;;;20.33;3.47;;;;;;;;;;5024820;28;20030;-47
2022/06/27 00:18:12;;;;;;;13.32;3.63;;;;;;;;;;5028294;28;20025;-44
2022/06/27 00:20:38;;;;;;;12.55;3.85;;;;;;;;;;5023262;28;20375;-48
2022/06/27 00:23:03;;;;;;;15.38;3.85;;;;;;;;;;5026244;28;20057;-47
2022/06/27 00:25:29;;;;;;;15.43;3.72;;;;;;;;;;5024773;28;20116;-50
2022/06/27 00:27:55;;;;;;;12.55;3.45;;;;;;;;;;5025633;28;20362;-47
2022/06/27 00:30:20;;;;;;;12.90;3.65;;;;;;;;;;5027903;28;20041;-49
2022/06/27 00:32:48;;;;;;;16.13;3.20;;;;;;;;;;5024590;28;20152;-46
2022/06/27 00:35:13;;;;;;;15.10;3.83;;;;;;;;;;5024549;28;20413;-47
2022/06/27 00:37:39;;;;;;;15.13;3.30;;;;;;;;;;5024194;28;20033;-44
2022/06/27 00:40:06;;;;;;;13.52;3.35;;;;;;;;;;5023176;28;20429;-48
2022/06/27 00:42:32;;;;;;;17.08;3.70;;;;;;;;;;5026213;28;20544;-47
2022/06/27 00:44:58;;;;;;;17.50;3.80;;;;;;;;;;5026806;28;20069;-49
2022/06/27 00:47:24;;;;;;;21.95;4.03;;;;;;;;;;5025564;28;20541;-50
2022/06/27 00:49:50;;;;;;;16.13;3.40;;;;;;;;;;5024831;28;20108;-51
2022/06/27 00:52:16;;;;;;;15.38;2.95;;;;;;;;;;5025551;28;20022;-49
2022/06/27 00:54:43;;;;;;;15.27;3.55;;;;;;;;;;5025374;28;20037;-45
2022/06/27 00:57:12;;;;;;;11.35;3.20;;;;;;;;;;5028065;28;20064;-44
2022/06/27 00:59:38;;;;;;;16.23;3.47;;;;;;;;;;5024947;28;20398;-44
2022/06/27 01:02:05;;;;;;;10.85;3.30;;;;;;;;;;5025571;28;20103;-48
2022/06/27 01:04:31;;;;;;;14.90;3.53;;;;;;;;;;5025443;28;20034;-50
2022/06/27 01:06:57;;;;;;;13.07;3.28;;;;;;;;;;5027903;28;20022;-50
2022/06/27 01:09:24;;;;;;;18.38;4.22;;;;;;;;;;5030058;28;20029;-50
2022/06/27 01:11:50;;;;;;;17.20;3.78;;;;;;;;;;5027483;28;20021;-50
2022/06/27 01:14:17;;;;;;;15.93;3.88;;;;;;;;;;5027122;28;20036;-52
2022/06/27 01:16:43;;;;;;;19.38;3.72;;;;;;;;;;5027086;28;20025;-49
2022/06/27 01:19:11;;;;;;;16.02;3.50;;;;;;;;;;5028916;28;20035;-50
2022/06/27 01:21:43;;;;;;;14.25;3.92;;;;;;;;;;5028329;28;20036;-48
2022/06/27 01:24:08;;;;;;;23.15;3.92;;;;;;;;;;5029947;28;20065;-49
2022/06/27 01:26:35;;;;;;;21.27;3.55;;;;;;;;;;5027021;28;20107;-48
2022/06/27 01:29:00;;;;;;;13.90;3.80;;;;;;;;;;5028763;28;20112;-49
2022/06/27 01:31:27;;;;;;;22.05;4.00;;;;;;;;;;5027103;28;20497;-53
2022/06/27 01:33:53;;;;;;;20.02;4.53;;;;;;;;;;5026620;28;20029;-53
2022/06/27 01:39:04;;;;;;;17.27;4.18;;;;;;;;;;5029370;28;20099;-50
2022/06/27 01:41:30;;;;;;;15.18;4.10;;;;;;;;;;5023840;28;20117;-47
2022/06/27 01:43:56;;;;;;;17.15;4.18;;;;;;;;;;5028763;28;20042;-45
2022/06/27 01:46:22;;;;;;;16.60;3.60;;;;;;;;;;5026625;28;20099;-53
2022/06/27 01:48:47;;;;;;;17.65;3.97;;;;;;;;;;5023214;28;20034;-47
2022/06/27 01:51:13;;;;;;;19.92;4.50;;;;;;;;;;5043116;28;20025;-47
2022/06/27 01:53:40;;;;;;;20.65;4.30;;;;;;;;;;5024945;28;20116;-48
2022/06/27 01:56:06;;;;;;;18.98;4.10;;;;;;;;;;5026222;28;20040;-51
2022/06/27 01:58:33;;;;;;;16.48;4.18;;;;;;;;;;5027195;28;20033;-50
2022/06/27 02:00:58;;;;;;;23.92;4.38;;;;;;;;;;5024891;28;20065;-51
2022/06/27 02:03:24;;;;;;;13.98;3.83;;;;;;;;;;5029868;28;20034;-52
2022/06/27 02:05:53;;;;;;;19.27;3.80;;;;;;;;;;4987879;28;1157076;-52
2022/06/27 02:08:21;;;;;;;10.60;3.83;;;;;;;;;;5027607;28;20040;-53
2022/06/27 02:10:47;;;;;;;15.82;4.13;;;;;;;;;;5027445;28;20493;-51
2022/06/27 02:13:13;;;;;;;21.35;4.82;;;;;;;;;;5028187;28;20060;-52
2022/06/27 02:16:01;;;;;;;31.52;5.78;;;;;;;;;;5025100;28;20780;-53
2022/06/27 02:18:27;;;;;;;22.17;4.85;;;;;;;;;;5028509;28;20033;-50
2022/06/27 02:20:54;;;;;;;18.25;4.43;;;;;;;;;;5048964;28;20766;-53
2022/06/27 02:23:19;;;;;;;18.25;4.45;;;;;;;;;;5025721;28;20028;-53
2022/06/27 02:25:45;;;;;;;16.77;4.32;;;;;;;;;;5029006;28;20029;-50
2022/06/27 02:28:13;;;;;;;22.27;4.53;;;;;;;;;;5026564;28;20079;-53
2022/06/27 02:30:38;;;;;;;17.48;4.03;;;;;;;;;;5028212;28;20025;-53
2022/06/27 02:33:04;;;;;;;16.30;4.13;;;;;;;;;;5029711;28;20036;-44
2022/06/27 02:35:31;;;;;;;14.38;4.00;;;;;;;;;;5027728;28;20029;-45
2022/06/27 02:37:57;;;;;;;14.80;4.03;;;;;;;;;;5027716;28;20117;-45
2022/06/27 02:40:23;;;;;;;21.85;4.30;;;;;;;;;;5027402;28;20452;-45
2022/06/27 02:42:52;;;;;;;19.65;4.18;;;;;;;;;;5025828;28;20029;-47
2022/06/27 02:45:18;;;;;;;18.48;3.70;;;;;;;;;;5027938;28;20493;-44
2022/06/27 02:47:47;;;;;;;19.25;4.25;;;;;;;;;;5025702;28;20057;-45
2022/06/27 02:50:13;;;;;;;17.23;4.28;;;;;;;;;;5026193;28;20064;-45
2022/06/27 02:52:45;;;;;;;18.67;4.10;;;;;;;;;;5023744;28;20069;-47
2022/06/27 02:55:15;;;;;;;17.13;4.43;;;;;;;;;;5027412;28;20037;-44
2022/06/27 02:57:47;;;;;;;19.08;5.35;;;;;;;;;;5027409;28;20481;-44
2022/06/27 03:00:14;;;;;;;17.33;4.10;;;;;;;;;;5030197;28;20473;-45
2022/06/27 03:02:43;;;;;;;17.60;3.90;;;;;;;;;;5025734;28;20446;-44
2022/06/27 03:05:08;;;;;;;14.73;3.75;;;;;;;;;;5023840;28;20496;-47
2022/06/27 03:07:41;;;;;;;17.88;4.25;;;;;;;;;;5023363;28;20049;-45
2022/06/27 03:10:09;;;;;;;16.65;4.97;;;;;;;;;;5020807;28;20052;-48
2022/06/27 03:12:35;;;;;;;15.15;4.03;;;;;;;;;;5023970;28;20033;-44
2022/06/27 03:15:01;;;;;;;16.02;4.05;;;;;;;;;;5028450;28;20440;-44
2022/06/27 03:17:28;;;;;;;21.98;3.63;;;;;;;;;;5026118;28;20033;-44
2022/06/27 03:19:54;;;;;;;15.88;4.18;;;;;;;;;;5024697;28;20496;-44
2022/06/27 03:22:19;;;;;;;17.98;3.80;;;;;;;;;;5025835;28;20029;-44
2022/06/27 03:24:45;;;;;;;12.18;3.65;;;;;;;;;;5026997;28;20045;-44
2022/06/27 03:27:11;;;;;;;16.85;3.85;;;;;;;;;;5027909;28;20134;-44
2022/06/27 03:29:37;;;;;;;15.95;4.00;;;;;;;;;;5027000;28;20144;-45
2022/06/27 03:32:04;;;;;;;15.38;3.60;;;;;;;;;;5025010;28;20090;-44
2022/06/27 03:34:30;;;;;;;13.25;3.65;;;;;;;;;;5026192;28;20041;-46
2022/06/27 03:36:56;;;;;;;16.67;4.88;;;;;;;;;;5024984;28;20041;-45
2022/06/27 03:39:22;;;;;;;18.92;4.18;;;;;;;;;;5026993;28;20034;-44
2022/06/27 03:41:48;;;;;;;12.98;3.83;;;;;;;;;;5024351;28;20021;-48
2022/06/27 03:44:14;;;;;;;18.92;4.30;;;;;;;;;;5025486;28;20036;-45
2022/06/27 03:46:40;;;;;;;16.63;4.28;;;;;;;;;;5026739;28;20112;-46
2022/06/27 03:51:51;;;;;;;17.67;3.80;;;;;;;;;;5024488;28;20482;-45
2022/06/27 03:54:16;;;;;;;12.13;3.75;;;;;;;;;;5028625;28;20033;-44
2022/06/27 03:56:42;;;;;;;14.20;3.83;;;;;;;;;;5023304;28;20025;-44
2022/06/27 03:59:08;;;;;;;17.55;3.97;;;;;;;;;;5027570;28;20036;-44
2022/06/27 04:01:34;;;;;;;19.88;4.13;;;;;;;;;;5026209;28;20091;-45
2022/06/27 04:04:00;;;;;;;13.93;3.47;;;;;;;;;;5024130;28;20053;-52
2022/06/27 04:06:26;;;;;;;19.52;4.53;;;;;;;;;;5025568;28;20028;-46
2022/06/27 04:08:51;;;;;;;13.75;3.67;;;;;;;;;;5024647;28;20029;-44
2022/06/27 04:11:17;;;;;;;18.13;4.25;;;;;;;;;;5023406;28;20036;-47
2022/06/27 04:13:47;;;;;;;15.65;3.70;;;;;;;;;;5024362;28;20055;-44
2022/06/27 04:16:15;;;;;;;17.15;3.85;;;;;;;;;;5023250;28;20099;-47
2022/06/27 04:18:41;;;;;;;17.80;4.57;;;;;;;;;;5023036;28;20029;-44
2022/06/27 04:21:07;;;;;;;23.60;4.13;;;;;;;;;;5027761;28;20036;-45
2022/06/27 04:23:32;;;;;;;14.63;4.38;;;;;;;;;;5026527;28;20029;-45
2022/06/27 04:25:58;;;;;;;20.92;4.30;;;;;;;;;;5024317;28;20025;-47
2022/06/27 04:28:24;;;;;;;25.45;4.22;;;;;;;;;;5025873;28;20385;-45
2022/06/27 04:30:51;;;;;;;15.65;4.00;;;;;;;;;;5023095;28;20037;-47
2022/06/27 04:33:16;;;;;;;17.00;3.60;;;;;;;;;;5026629;28;20061;-44
2022/06/27 04:35:46;;;;;;;13.10;3.58;;;;;;;;;;5024379;28;20075;-44
2022/06/27 04:38:17;;;;;;;20.25;3.95;;;;;;;;;;5025261;28;20030;-44
2022/06/27 04:40:43;;;;;;;27.30;5.18;;;;;;;;;;5026605;28;20041;-44
2022/06/27 04:43:09;;;;;;;15.00;4.10;;;;;;;;;;5040609;28;20033;-48
2022/06/27 04:45:36;;;;;;;13.55;4.10;;;;;;;;;;5024034;28;20029;-44
2022/06/27 04:48:04;;;;;;;16.13;4.45;;;;;;;;;;5025908;28;20052;-44
2022/06/27 04:50:30;;;;;;;22.85;3.58;;;;;;;;;;5025927;28;20036;-44
2022/06/27 04:53:00;;;;;;;15.45;4.40;;;;;;;;;;5024358;28;20045;-45
2022/06/27 04:55:26;;;;;;;20.10;4.22;;;;;;;;;;5024835;28;20573;-47
2022/06/27 04:57:52;;;;;;;17.98;4.45;;;;;;;;;;5043890;28;20069;-45
2022/06/27 05:00:18;;;;;;;16.88;4.40;;;;;;;;;;5028632;28;20065;-46
2022/06/27 05:02:44;;;;;;;20.55;4.47;;;;;;;;;;5024600;28;20037;-45
2022/06/27 05:05:09;;;;;;;17.88;4.53;;;;;;;;;;5025489;28;20080;-44
2022/06/27 05:07:35;;;;;;;19.60;4.05;;;;;;;;;;5023070;28;20025;-46
2022/06/27 05:10:02;;;;;;;17.02;5.35;;;;;;;;;;5023983;28;20387;-44
2022/06/27 05:12:29;;;;;;;26.83;4.63;;;;;;;;;;5026706;28;20030;-46
2022/06/27 05:14:55;;;;;;;22.65;4.75;;;;;;;;;;5024108;28;20048;-44
2022/06/27 05:17:24;;;;;;;14.40;4.15;;;;;;;;;;5021154;28;20390;-45
2022/06/27 05:19:49;;;;;;;20.52;4.75;;;;;;;;;;5021846;28;20036;-50
2022/06/27 05:22:16;;;;;;;22.13;4.78;;;;;;;;;;5022165;28;20025;-44
2022/06/27 05:24:41;;;;;;;17.67;4.68;;;;;;;;;;5022507;28;20116;-46
2022/06/27 05:27:09;;;;;;;15.70;5.13;;;;;;;;;;5017411;28;20033;-45
2022/06/27 05:29:38;;;;;;;17.98;5.15;;;;;;;;;;5015535;28;20394;-46
2022/06/27 05:32:04;;;;;;;22.48;4.32;;;;;;;;;;5016969;28;20067;-45
2022/06/27 05:34:30;;;;;;;27.27;5.03;;;;;;;;;;5018109;28;20055;-44
2022/06/27 05:36:56;;;;;;;23.05;5.00;;;;;;;;;;5016542;28;20068;-44
2022/06/27 05:39:21;;;;;;;21.80;5.43;;;;;;;;;;5025594;28;20026;-44
2022/06/27 05:41:48;;;;;;;17.58;5.32;;;;;;;;;;5025957;28;20540;-44
2022/06/27 05:44:14;;;;;;;18.15;4.55;;;;;;;;;;5023013;28;20076;-45
2022/06/27 05:46:41;;;;;;;16.85;4.63;;;;;;;;;;5023796;28;20049;-48
2022/06/27 05:49:08;;;;;;;19.45;4.82;;;;;;;;;;5029316;28;20017;-46
2022/06/27 05:51:35;;;;;;;23.80;4.95;;;;;;;;;;5026390;28;20049;-51
2022/06/27 05:54:01;;;;;;;24.92;4.85;;;;;;;;;;5020895;28;20099;-44
2022/06/27 05:56:30;;;;;;;25.98;4.43;;;;;;;;;;5023871;28;20025;-44
2022/06/27 05:58:57;;;;;;;20.38;4.53;;;;;;;;;;5027111;28;20040;-47
2022/06/27 06:01:23;;;;;;;22.85;5.43;;;;;;;;;;5024304;28;20054;-46
2022/06/27 06:03:49;;;;;;;23.02;4.57;;;;;;;;;;5026322;28;20034;-46
2022/06/27 06:06:16;;;;;;;22.90;4.72;;;;;;;;;;5030456;28;20045;-44
2022/06/27 06:08:43;;;;;;;25.85;4.30;;;;;;;;;;5027104;28;20032;-45
2022/06/27 06:11:12;;;;;;;23.50;5.07;;;;;;;;;;5025331;28;20040;-45
2022/06/27 06:13:38;;;;;;;22.67;4.72;;;;;;;;;;5027900;28;20131;-45
2022/06/27 06:16:06;;;;;;;20.98;4.53;;;;;;;;;;5027080;28;20687;-45
2022/06/27 06:18:33;;;;;;;21.85;4.93;;;;;;;;;;5027871;28;20091;-44
2022/06/27 06:20:59;;;;;;;20.95;4.30;;;;;;;;;;5029902;28;20051;-43
2022/06/27 06:23:26;;;;;;;20.20;4.40;;;;;;;;;;5028234;28;20128;-44
2022/06/27 06:25:52;;;;;;;21.27;4.10;;;;;;;;;;5027002;28;20025;-46
2022/06/27 06:28:18;;;;;;;24.65;4.68;;;;;;;;;;5028598;28;20026;-47
2022/06/27 06:30:44;;;;;;;21.80;3.95;;;;;;;;;;5026345;28;20033;-49
2022/06/27 06:33:10;;;;;;;20.75;4.55;;;;;;;;;;5028306;28;20063;-47
2022/06/27 06:35:36;;;;;;;23.65;4.32;;;;;;;;;;5025909;28;20478;-44
2022/06/27 06:38:02;;;;;;;15.90;4.00;;;;;;;;;;5026847;28;20022;-44
2022/06/27 06:40:29;;;;;;;21.42;4.85;;;;;;;;;;5024723;28;20051;-47
2022/06/27 06:42:55;;;;;;;14.68;3.90;;;;;;;;;;5027171;28;20513;-45
2022/06/27 06:45:22;;;;;;;18.88;4.28;;;;;;;;;;5027099;28;20034;-44
2022/06/27 06:47:50;;;;;;;28.30;5.53;;;;;;;;;;5027373;28;20405;-45
2022/06/27 06:50:20;;;;;;;24.75;4.60;;;;;;;;;;5026307;28;20064;-44
2022/06/27 06:52:49;;;;;;;17.95;4.18;;;;;;;;;;5025855;28;20093;-44
2022/06/27 06:55:16;;;;;;;18.55;4.57;;;;;;;;;;5026788;28;20429;-44
2022/06/27 06:57:42;;;;;;;15.32;4.57;;;;;;;;;;5027330;28;20429;-45
2022/06/27 07:00:10;;;;;;;36.78;4.68;;;;;;;;;;5027773;28;20039;-44
2022/06/27 07:02:36;;;;;;;17.63;3.97;;;;;;;;;;5027503;28;20112;-44
2022/06/27 07:05:04;;;;;;;14.10;3.72;;;;;;;;;;5024015;28;20495;-45
2022/06/27 07:07:32;;;;;;;32.05;4.70;;;;;;;;;;5027017;28;20506;-44
2022/06/27 07:09:59;;;;;;;22.10;4.68;;;;;;;;;;5025636;28;20041;-46
2022/06/27 07:12:25;;;;;;;17.70;4.15;;;;;;;;;;5026456;28;20033;-44
2022/06/27 07:14:54;;;;;;;19.35;4.35;;;;;;;;;;5026648;28;20029;-44
2022/06/27 07:17:24;;;;;;;13.80;3.88;;;;;;;;;;5025666;28;20022;-50
2022/06/27 07:19:52;;;;;;;17.85;4.55;;;;;;;;;;5024593;28;20049;-50
2022/06/27 07:22:19;;;;;;;15.43;4.07;;;;;;;;;;5026284;28;20033;-46
2022/06/27 07:24:49;;;;;;;20.65;4.15;;;;;;;;;;5024799;28;20045;-50
2022/06/27 07:27:17;;;;;;;11.35;4.32;;;;;;;;;;5026423;28;20064;-49
2022/06/27 07:29:43;;;;;;;18.80;4.28;;;;;;;;;;5026359;28;20018;-47
2022/06/27 07:32:10;;;;;;;21.45;4.05;;;;;;;;;;5025784;28;20088;-50
2022/06/27 07:34:36;;;;;;;16.90;3.90;;;;;;;;;;5025980;28;20516;-45
2022/06/27 07:37:02;;;;;;;27.98;3.92;;;;;;;;;;5026307;28;20037;-46
2022/06/27 07:39:28;;;;;;;15.65;3.45;;;;;;;;;;5027053;28;20428;-46
2022/06/27 07:41:54;;;;;;;25.85;4.75;;;;;;;;;;5028823;28;20029;-44
2022/06/27 07:44:21;;;;;;;16.27;4.40;;;;;;;;;;5040993;28;20025;-44
2022/06/27 07:46:48;;;;;;;15.55;3.88;;;;;;;;;;5026186;28;20052;-44
2022/06/27 07:49:14;;;;;;;20.65;3.90;;;;;;;;;;5024602;28;20026;-45
2022/06/27 07:51:41;;;;;;;18.23;3.65;;;;;;;;;;5026013;28;20057;-47
2022/06/27 07:54:10;;;;;;;19.58;3.78;;;;;;;;;;5026193;28;20029;-44
2022/06/27 07:56:37;;;;;;;24.15;3.80;;;;;;;;;;5025138;28;20032;-47
2022/06/27 07:59:07;;;;;;;14.77;3.65;;;;;;;;;;5026276;28;20021;-46
2022/06/27 08:01:33;;;;;;;16.50;3.42;;;;;;;;;;5025223;28;20041;-44
2022/06/27 08:03:59;;;;;;;14.23;3.45;;;;;;;;;;5025957;28;20053;-47
2022/06/27 08:06:27;;;;;;;13.85;3.90;;;;;;;;;;5025215;28;20030;-50
2022/06/27 08:08:57;;;;;;;24.20;4.35;;;;;;;;;;5026429;28;20037;-49
2022/06/27 08:11:32;;;;;;;18.23;4.05;;;;;;;;;;5024597;28;20021;-49
2022/06/27 08:14:03;;;;;;;25.02;4.30;;;;;;;;;;5019906;28;20045;-45
2022/06/27 08:16:30;;;;;;;20.23;4.23;;;;;;;;;;5024658;28;20033;-45
2022/06/27 08:18:57;;;;;;;25.77;4.63;;;;;;;;;;5025135;28;20060;-49
2022/06/27 08:21:25;;;;;;;15.80;3.83;;;;;;;;;;5026470;28;20390;-46
2022/06/27 08:23:56;;;;;;;16.38;3.60;;;;;;;;;;5026028;28;20029;-50
2022/06/27 08:26:23;;;;;;;;;;;;;;;;;;5022716;28;20036;-45
2022/06/27 08:28:49;;;;;;;22.70;4.00;;;;;;;;;;5025740;28;20022;-49
2022/06/27 08:31:15;;;;;;;17.42;3.78;;;;;;;;;;5024999;28;20048;-45
2022/06/27 08:33:43;;;;;;;19.73;4.25;;;;;;;;;;5025741;28;20033;-47
2022/06/27 08:36:09;;;;;;;18.45;4.05;;;;;;;;;;5026800;28;20033;-48
2022/06/27 08:38:45;;;;;;;15.73;4.03;;;;;;;;;;5022599;28;20083;-47
2022/06/27 08:41:12;;;;;;;26.67;3.88;;;;;;;;;;5024416;28;20025;-44
2022/06/27 08:43:40;;;;;;;15.68;4.10;;;;;;;;;;5023329;28;20177;-45
2022/06/27 08:46:06;;;;;;;12.93;3.25;;;;;;;;;;5025604;28;20140;-47
2022/06/27 08:48:35;;;;;;;14.18;3.65;;;;;;;;;;5024567;28;20033;-46
2022/06/27 08:51:06;;;;;;;18.88;3.83;;;;;;;;;;5023580;28;20436;-45
2022/06/27 08:53:33;;;;;;;18.88;4.40;;;;;;;;;;5026329;28;20481;-46
2022/06/27 08:56:00;;;;;;;16.75;3.35;;;;;;;;;;5023135;28;20851;-49
2022/06/27 08:58:27;;;;;;;14.30;3.53;;;;;;;;;;5025262;28;20037;-47
2022/06/27 09:00:53;;;;;;;12.77;4.00;;;;;;;;;;5024482;28;20041;-45
2022/06/27 09:03:21;;;;;;;13.30;3.95;;;;;;;;;;5026691;28;20033;-44
2022/06/27 09:06:02;;;;;;;22.10;4.00;;;;;;;;;;5023090;28;20541;-44
2022/06/27 09:08:31;;;;;;;;;;;;;;;;;;5023429;28;20044;-50
2022/06/27 09:10:58;;;;;;;25.42;4.50;;;;;;;;;;5027050;28;19920;-46
2022/06/27 09:13:25;;;;;;;16.50;3.95;;;;;;;;;;5023106;28;20021;-45
2022/06/27 09:16:04;;;;;;;12.98;3.75;;;;;;;;;;5024888;28;20029;-50
2022/06/27 09:18:35;;;;;;;16.65;3.80;;;;;;;;;;5026166;28;20029;-51
2022/06/27 09:21:07;;;;;;;16.45;4.22;;;;;;;;;;5025118;28;20393;-45
2022/06/27 09:23:50;;;;;;;18.02;3.95;;;;;;;;;;5027472;28;20033;-49
2022/06/27 09:26:29;;;;;;;17.35;3.63;;;;;;;;;;5038618;28;20075;-46
2022/06/27 09:29:08;;;;;;;18.10;3.92;;;;;;;;;;5028431;28;20069;-45
2022/06/27 09:31:36;;;;;;;14.95;3.88;;;;;;;;;;5023172;28;20526;-51
2022/06/27 09:34:26;;;;;;;25.52;4.15;;;;;;;;;;5029416;28;20033;-47
2022/06/27 09:36:54;;;;;;;15.82;3.95;;;;;;;;;;5029640;28;20060;-47
2022/06/27 09:39:30;;;;;;;17.40;4.35;;;;;;;;;;5028118;28;20045;-48
2022/06/27 09:42:01;;;;;;;18.35;4.45;;;;;;;;;;5029528;28;20065;-47
2022/06/27 09:44:30;;;;;;;18.17;4.05;;;;;;;;;;5027061;28;20065;-48
2022/06/27 09:47:11;;;;;;;16.67;3.53;;;;;;;;;;5027620;28;20041;-47
2022/06/27 09:49:38;;;;;;;;;;;;;;;;;;5025726;28;20037;-53
2022/06/27 09:52:08;;;;;;;13.43;3.55;;;;;;;;;;5029555;28;19917;-47
2022/06/27 09:54:35;;;;;;;18.52;3.45;;;;;;;;;;5028096;28;20063;-51
2022/06/27 09:57:01;;;;;;;20.17;3.22;;;;;;;;;;5030165;28;20486;-49
2022/06/27 09:59:27;;;;;;;13.95;3.42;;;;;;;;;;5027734;28;20064;-48
2022/06/27 10:01:57;;;;;;;21.52;4.03;;;;;;;;;;5026620;28;20056;-44
2022/06/27 10:04:28;;;;;;;17.80;4.15;;;;;;;;;;5028174;28;20038;-44
2022/06/27 10:06:58;;;;;;;19.73;3.50;;;;;;;;;;5027904;28;20057;-46
2022/06/27 10:09:25;;;;;;;26.85;3.92;;;;;;;;;;5029497;28;20033;-44
2022/06/27 10:12:18;;;;;;;19.30;3.42;;;;;;;;;;5028349;28;20017;-48
2022/06/27 10:14:44;;;;;;;15.73;3.83;;;;;;;;;;5026101;28;20048;-48
2022/06/27 10:17:14;;;;;;;13.07;3.63;;;;;;;;;;5028015;28;20026;-46
2022/06/27 10:20:00;;;;;;;25.67;4.07;;;;;;;;;;5026682;28;20079;-47
2022/06/27 10:22:26;;;;;;;14.70;3.22;;;;;;;;;;5027269;28;20126;-44
2022/06/27 10:24:52;;;;;;;13.52;3.33;;;;;;;;;;5028805;28;20037;-45
2022/06/27 10:27:29;;;;;;;13.85;2.95;;;;;;;;;;5030011;28;20049;-47
2022/06/27 10:29:55;;;;;;;13.68;2.90;;;;;;;;;;5027461;28;20030;-45
2022/06/27 10:32:43;;;;;;;16.13;3.28;;;;;;;;;;5026478;28;20021;-51
2022/06/27 10:35:11;;;;;;;13.88;3.55;;;;;;;;;;5024640;28;20128;-44
2022/06/27 10:37:39;;;;;;;14.70;3.10;;;;;;;;;;5026154;28;20029;-46
2022/06/27 10:40:19;;;;;;;11.63;3.33;;;;;;;;;;5027385;28;20153;-46
2022/06/27 10:42:52;;;;;;;24.60;4.37;;;;;;;;;;5025033;28;20473;-46
2022/06/27 10:45:21;;;;;;;17.50;3.67;;;;;;;;;;5029787;28;20025;-48
2022/06/27 10:47:48;;;;;;;14.30;4.47;;;;;;;;;;5026446;28;20053;-44
2022/06/27 10:50:16;;;;;;;23.67;3.60;;;;;;;;;;5025327;28;20025;-45
2022/06/27 10:52:42;;;;;;;19.20;3.47;;;;;;;;;;5028462;28;20553;-51
2022/06/27 10:55:29;;;;;;;19.10;4.20;;;;;;;;;;5028179;28;20047;-52
2022/06/27 10:57:56;;;;;;;18.70;4.10;;;;;;;;;;5026998;28;20034;-48
2022/06/27 11:00:39;;;;;;;13.27;3.78;;;;;;;;;;5024049;28;20056;-45
2022/06/27 11:03:08;;;;;;;15.25;3.95;;;;;;;;;;5027631;28;20030;-44
2022/06/27 11:05:54;;;;;;;17.00;3.63;;;;;;;;;;5025257;28;20038;-46
2022/06/27 11:08:23;;;;;;;17.90;3.75;;;;;;;;;;5022867;28;20056;-51
2022/06/27 11:10:50;;;;;;;19.02;4.05;;;;;;;;;;5026606;28;20047;-49
2022/06/27 11:13:45;;;;;;;13.18;3.33;;;;;;;;;;5027434;28;22845;-46
2022/06/27 11:16:16;;;;;;;15.95;4.38;;;;;;;;;;5023078;28;20179;-45
2022/06/27 11:18:54;;;;;;;16.63;3.80;;;;;;;;;;5027323;28;20021;-53
2022/06/27 11:21:24;;;;;;;23.02;4.07;;;;;;;;;;5027106;28;20080;-50
2022/06/27 11:23:52;;;;;;;13.73;3.40;;;;;;;;;;5027145;28;20512;-49
2022/06/27 11:26:22;;;;;;;15.13;3.65;;;;;;;;;;5027182;28;20799;-47
2022/06/27 11:31:59;;;;;;;10.98;3.17;;;;;;;;;;5010543;28;20034;-53
2022/06/27 11:34:27;;;;;;;13.32;3.63;;;;;;;;;;5007085;28;20086;-47
2022/06/27 11:36:53;;;;;;;16.35;3.47;;;;;;;;;;5010470;28;20638;-47
2022/06/27 11:39:29;;;;;;;12.23;3.33;;;;;;;;;;5009678;28;20038;-50
2022/06/27 11:41:57;;;;;;;15.55;3.33;;;;;;;;;;5008564;28;20050;-47
2022/06/27 11:44:23;;;;;;;15.90;3.13;;;;;;;;;;4996878;28;20029;-48
2022/06/27 11:46:51;;;;;;;19.25;4.03;;;;;;;;;;5011883;28;20076;-45
2022/06/27 11:49:27;;;;;;;23.15;3.90;;;;;;;;;;5010852;28;20077;-48
2022/06/27 11:52:07;;;;;;;16.15;4.00;;;;;;;;;;5009237;28;20041;-45
2022/06/27 11:54:51;;;;;;;15.38;3.58;;;;;;;;;;5012967;28;20081;-48
2022/06/27 11:57:29;;;;;;;11.57;3.25;;;;;;;;;;5013041;28;20026;-45
2022/06/27 11:59:56;;;;;;;19.10;3.28;;;;;;;;;;5010720;28;20422;-50
2022/06/27 12:02:30;;;;;;;11.70;3.38;;;;;;;;;;5012328;28;20466;-47
2022/06/27 12:05:07;;;;;;;12.73;3.50;;;;;;;;;;5006510;28;20053;-50
2022/06/27 12:07:56;;;;;;;17.23;3.08;;;;;;;;;;5012441;28;21038;-48
2022/06/27 12:11:16;;;;;;;11.52;3.30;;;;;;;;;;5022231;28;20022;-47
2022/06/27 12:13:32;;;;;;;21.38;4.07;;;;;;;;;;5023367;28;20051;-52
2022/06/27 12:16:03;;;;;;;7.63;3.10;;;;;;;;;;5023606;28;20103;-50
2022/06/27 12:18:42;;;;;;;21.37;3.97;;;;;;;;;;5025945;28;20037;-48
2022/06/27 12:21:09;;;;;;;15.77;3.30;;;;;;;;;;5026707;28;20477;-47
2022/06/27 12:23:35;;;;;;;17.35;3.88;;;;;;;;;;5024432;28;20029;-46
2022/06/27 12:26:01;;;;;;;14.75;3.80;;;;;;;;;;5025798;28;20061;-51
2022/06/27 12:28:27;;;;;;;15.38;3.15;;;;;;;;;;5025444;28;20458;-52
2022/06/27 12:30:53;;;;;;;18.48;3.40;;;;;;;;;;5027283;28;20482;-47
2022/06/27 12:33:18;;;;;;;20.17;3.85;;;;;;;;;;5028226;28;20505;-52
2022/06/27 12:35:44;;;;;;;9.88;3.65;;;;;;;;;;5026038;28;20204;-54
2022/06/27 12:38:10;;;;;;;15.00;3.63;;;;;;;;;;5024816;28;20036;-51
2022/06/27 12:40:36;;;;;;;16.10;3.42;;;;;;;;;;5024824;28;20033;-48
2022/06/27 12:43:06;;;;;;;15.32;3.38;;;;;;;;;;5023451;28;20029;-54
2022/06/27 12:45:33;;;;;;;12.27;3.42;;;;;;;;;;5025436;28;20685;-47
2022/06/27 12:47:59;;;;;;;17.65;3.42;;;;;;;;;;5026854;28;20021;-48
2022/06/27 12:50:24;;;;;;;13.27;3.00;;;;;;;;;;5026327;28;20080;-49
2022/06/27 12:52:50;;;;;;;11.05;3.55;;;;;;;;;;5024014;28;20687;-47
2022/06/27 12:55:16;;;;;;;15.27;3.92;;;;;;;;;;5024630;28;20033;-49
2022/06/27 12:57:42;;;;;;;16.52;3.38;;;;;;;;;;5026549;28;20107;-51
2022/06/27 13:00:09;;;;;;;12.00;3.50;;;;;;;;;;5026297;28;21466;-51
2022/06/27 13:02:34;;;;;;;18.38;3.97;;;;;;;;;;5029131;28;20049;-51
2022/06/27 13:05:00;;;;;;;19.23;3.72;;;;;;;;;;5028672;28;20600;-50
2022/06/27 13:07:26;;;;;;;10.95;3.25;;;;;;;;;;5026167;28;20063;-49
2022/06/27 13:09:52;;;;;;;15.77;3.42;;;;;;;;;;5025036;28;20034;-52
2022/06/27 13:12:18;;;;;;;19.17;3.22;;;;;;;;;;5024758;28;20532;-50
2022/06/27 13:14:44;;;;;;;16.40;3.47;;;;;;;;;;5025000;28;20032;-46
2022/06/27 13:17:10;;;;;;;15.07;3.75;;;;;;;;;;5027197;28;20529;-46
2022/06/27 13:19:36;;;;;;;20.45;3.60;;;;;;;;;;5027931;28;20044;-46
2022/06/27 13:22:02;;;;;;;17.20;3.30;;;;;;;;;;5027291;28;20486;-46
2022/06/27 13:24:28;;;;;;;8.80;2.72;;;;;;;;;;5026118;28;20037;-46
2022/06/27 13:26:54;;;;;;;9.80;2.78;;;;;;;;;;5025161;28;20037;-45
2022/06/27 13:29:20;;;;;;;8.52;2.60;;;;;;;;;;5023121;28;20100;-52
2022/06/27 13:31:46;;;;;;;13.10;2.80;;;;;;;;;;5028175;28;20701;-50
2022/06/27 13:34:12;;;;;;;13.70;3.08;;;;;;;;;;5041068;28;20045;-50
2022/06/27 13:36:37;;;;;;;10.65;3.05;;;;;;;;;;5026643;28;20033;-51
2022/06/27 13:39:03;;;;;;;21.35;2.70;;;;;;;;;;5028545;28;20060;-46
2022/06/27 13:41:29;;;;;;;10.98;2.72;;;;;;;;;;5021913;28;20032;-45
2022/06/27 13:43:55;;;;;;;10.85;2.90;;;;;;;;;;5026902;28;20029;-46
2022/06/27 13:46:20;;;;;;;14.63;2.63;;;;;;;;;;5027709;28;20021;-45
2022/06/27 13:48:46;;;;;;;13.55;2.70;;;;;;;;;;5024052;28;20095;-46
2022/06/27 13:51:12;;;;;;;10.95;2.25;;;;;;;;;;5030225;28;20034;-46
2022/06/27 13:53:38;;;;;;;7.80;2.65;;;;;;;;;;5026102;28;20033;-48
2022/06/27 13:56:04;;;;;;;10.65;2.70;;;;;;;;;;5024615;28;20040;-45
2022/06/27 13:58:29;;;;;;;11.50;2.30;;;;;;;;;;5025690;28;20041;-47
2022/06/27 14:00:55;;;;;;;16.63;2.85;;;;;;;;;;5023244;28;20026;-48
2022/06/27 14:03:21;;;;;;;11.55;2.55;;;;;;;;;;5027698;28;20792;-49
2022/06/27 14:05:47;;;;;;;16.60;2.60;;;;;;;;;;5028030;28;20103;-47
2022/06/27 14:08:13;;;;;;;8.63;2.40;;;;;;;;;;5027766;28;20113;-49
2022/06/27 14:10:54;;;;;;;5.10;2.30;;;;;;;;;;5024655;28;20396;-46
2022/06/27 14:13:22;;;;;;;12.65;2.78;;;;;;;;;;5029038;28;20025;-48
2022/06/27 14:15:47;;;;;;;16.55;2.67;;;;;;;;;;5029100;28;20091;-46
2022/06/27 14:18:13;;;;;;;15.85;3.20;;;;;;;;;;5030840;28;21996;-46
2022/06/27 14:20:39;;;;;;;13.35;2.47;;;;;;;;;;5026822;28;20072;-48
2022/06/27 14:23:04;;;;;;;15.68;3.63;;;;;;;;;;5028217;28;20057;-49
2022/06/27 14:25:30;;;;;;;10.80;2.60;;;;;;;;;;5028151;28;20040;-52
2022/06/27 14:27:58;;;;;;;17.13;3.15;;;;;;;;;;5026736;28;20096;-50
2022/06/27 14:30:24;;;;;;;16.33;2.80;;;;;;;;;;5029489;28;20017;-47
2022/06/27 14:32:50;;;;;;;15.07;2.95;;;;;;;;;;5026646;28;20489;-50
2022/06/27 14:35:16;;;;;;;12.07;3.28;;;;;;;;;;5043633;28;20462;-47
2022/06/27 14:37:42;;;;;;;18.50;3.15;;;;;;;;;;5025379;28;20112;-47
2022/06/27 14:40:09;;;;;;;16.52;3.33;;;;;;;;;;5048511;28;20029;-47
2022/06/27 14:42:34;;;;;;;19.20;3.15;;;;;;;;;;5028749;28;20025;-47
2022/06/27 14:45:00;;;;;;;14.27;3.03;;;;;;;;;;5029480;28;20034;-45